sensor_id;sensor_type;location;lat;lon;timestamp;P1;durP1;ratioP1;P2;durP2;ratioP2
22965;SDS011;11649;48.090;9.754;2022-08-01T00:00:04;4.93;;;3.80;;
22965;SDS011;11649;48.090;9.754;2022-08-01T00:02:34;4.50;;;4.10;;
22965;SDS011;11649;48.090;9.754;2022-08-01T00:05:05;5.82;;;3.83;;
22965;SDS011;11649;48.090;9.754;2022-08-01T00:07:36;6.55;;;3.90;;
22965;SDS011;11649;48.090;9.754;2022-08-01T00:10:04;12.52;;;3.97;;
22965;SDS011;11649;48.090;9.754;2022-08-01T00:12:33;9.50;;;3.90;;
22965;SDS011;11649;48.090;9.754;2022-08-01T00:14:59;9.07;;;4.07;;
22965;SDS011;11649;48.090;9.754;2022-08-01T00:17:26;4.85;;;3.55;;
22965;SDS011;11649;48.090;9.754;2022-08-01T00:19:53;10.90;;;3.92;;
22965;SDS011;11649;48.090;9.754;2022-08-01T00:22:20;4.53;;;3.50;;
22965;SDS011;11649;48.090;9.754;2022-08-01T00:24:47;6.88;;;3.65;;
22965;SDS011;11649;48.090;9.754;2022-08-01T00:27:14;4.18;;;3.60;;
22965;SDS011;11649;48.090;9.754;2022-08-01T00:29:41;7.80;;;3.55;;
22965;SDS011;11649;48.090;9.754;2022-08-01T00:32:30;9.65;;;3.83;;
22965;SDS011;11649;48.090;9.754;2022-08-01T00:34:57;6.80;;;3.90;;
22965;SDS011;11649;48.090;9.754;2022-08-01T00:37:24;7.55;;;4.20;;
22965;SDS011;11649;48.090;9.754;2022-08-01T00:39:51;5.80;;;3.90;;
22965;SDS011;11649;48.090;9.754;2022-08-01T00:42:18;7.18;;;3.60;;
22965;SDS011;11649;48.090;9.754;2022-08-01T00:44:45;6.35;;;3.50;;
22965;SDS011;11649;48.090;9.754;2022-08-01T00:47:12;7.68;;;3.83;;
22965;SDS011;11649;48.090;9.754;2022-08-01T00:49:39;5.53;;;4.13;;
22965;SDS011;11649;48.090;9.754;2022-08-01T00:52:06;7.47;;;3.85;;
22965;SDS011;11649;48.090;9.754;2022-08-01T00:54:34;5.22;;;3.67;;
22965;SDS011;11649;48.090;9.754;2022-08-01T00:57:02;7.35;;;4.00;;
22965;SDS011;11649;48.090;9.754;2022-08-01T00:59:29;5.15;;;3.45;;
22965;SDS011;11649;48.090;9.754;2022-08-01T01:01:57;5.05;;;3.50;;
22965;SDS011;11649;48.090;9.754;2022-08-01T01:04:24;5.30;;;3.30;;
22965;SDS011;11649;48.090;9.754;2022-08-01T01:07:07;4.18;;;3.65;;
22965;SDS011;11649;48.090;9.754;2022-08-01T01:09:44;5.40;;;3.55;;
22965;SDS011;11649;48.090;9.754;2022-08-01T01:17:48;4.25;;;3.85;;
22965;SDS011;11649;48.090;9.754;2022-08-01T01:20:17;5.70;;;3.83;;
22965;SDS011;11649;48.090;9.754;2022-08-01T01:28:12;7.20;;;4.20;;
22965;SDS011;11649;48.090;9.754;2022-08-01T01:30:48;5.93;;;3.97;;
22965;SDS011;11649;48.090;9.754;2022-08-01T01:33:17;4.82;;;3.53;;
22965;SDS011;11649;48.090;9.754;2022-08-01T01:35:48;8.43;;;4.10;;
22965;SDS011;11649;48.090;9.754;2022-08-01T01:38:22;6.03;;;4.10;;
22965;SDS011;11649;48.090;9.754;2022-08-01T01:40:55;6.00;;;3.92;;
22965;SDS011;11649;48.090;9.754;2022-08-01T01:43:23;9.95;;;4.10;;
22965;SDS011;11649;48.090;9.754;2022-08-01T01:45:58;7.05;;;3.92;;
22965;SDS011;11649;48.090;9.754;2022-08-01T01:48:27;8.43;;;3.75;;
22965;SDS011;11649;48.090;9.754;2022-08-01T01:50:55;7.15;;;3.92;;
22965;SDS011;11649;48.090;9.754;2022-08-01T01:53:23;4.75;;;3.90;;
22965;SDS011;11649;48.090;9.754;2022-08-01T01:55:53;5.47;;;3.78;;
22965;SDS011;11649;48.090;9.754;2022-08-01T01:58:22;6.25;;;3.90;;
22965;SDS011;11649;48.090;9.754;2022-08-01T02:00:51;6.20;;;4.38;;
22965;SDS011;11649;48.090;9.754;2022-08-01T02:03:21;6.25;;;3.72;;
22965;SDS011;11649;48.090;9.754;2022-08-01T02:05:49;7.32;;;3.97;;
22965;SDS011;11649;48.090;9.754;2022-08-01T02:08:19;4.05;;;3.63;;
22965;SDS011;11649;48.090;9.754;2022-08-01T02:10:47;5.30;;;4.22;;
22965;SDS011;11649;48.090;9.754;2022-08-01T02:13:36;6.55;;;3.83;;
22965;SDS011;11649;48.090;9.754;2022-08-01T02:16:05;3.92;;;3.55;;
22965;SDS011;11649;48.090;9.754;2022-08-01T02:18:34;4.53;;;3.55;;
22965;SDS011;11649;48.090;9.754;2022-08-01T02:21:01;4.43;;;3.67;;
22965;SDS011;11649;48.090;9.754;2022-08-01T02:23:32;4.63;;;3.88;;
22965;SDS011;11649;48.090;9.754;2022-08-01T02:26:02;7.10;;;4.00;;
22965;SDS011;11649;48.090;9.754;2022-08-01T02:29:10;6.72;;;4.13;;
22965;SDS011;11649;48.090;9.754;2022-08-01T02:31:32;7.32;;;4.22;;
22965;SDS011;11649;48.090;9.754;2022-08-01T02:34:05;4.80;;;4.30;;
22965;SDS011;11649;48.090;9.754;2022-08-01T02:36:35;9.35;;;4.15;;
22965;SDS011;11649;48.090;9.754;2022-08-01T02:39:08;4.95;;;4.40;;
22965;SDS011;11649;48.090;9.754;2022-08-01T02:41:41;6.05;;;4.03;;
22965;SDS011;11649;48.090;9.754;2022-08-01T02:44:14;6.43;;;4.55;;
22965;SDS011;11649;48.090;9.754;2022-08-01T02:46:56;5.88;;;4.00;;
22965;SDS011;11649;48.090;9.754;2022-08-01T02:49:32;8.88;;;4.03;;
22965;SDS011;11649;48.090;9.754;2022-08-01T02:52:02;6.35;;;4.50;;
22965;SDS011;11649;48.090;9.754;2022-08-01T02:54:33;4.82;;;4.32;;
22965;SDS011;11649;48.090;9.754;2022-08-01T02:57:02;4.97;;;3.92;;
22965;SDS011;11649;48.090;9.754;2022-08-01T02:59:31;8.05;;;4.07;;
22965;SDS011;11649;48.090;9.754;2022-08-01T03:04:35;12.95;;;4.07;;
22965;SDS011;11649;48.090;9.754;2022-08-01T03:07:04;4.85;;;4.07;;
22965;SDS011;11649;48.090;9.754;2022-08-01T03:09:35;4.60;;;4.07;;
22965;SDS011;11649;48.090;9.754;2022-08-01T03:12:06;5.07;;;3.80;;
22965;SDS011;11649;48.090;9.754;2022-08-01T03:14:38;4.72;;;3.70;;
22965;SDS011;11649;48.090;9.754;2022-08-01T03:17:07;5.78;;;4.15;;
22965;SDS011;11649;48.090;9.754;2022-08-01T03:19:35;9.45;;;4.13;;
22965;SDS011;11649;48.090;9.754;2022-08-01T03:22:08;6.70;;;4.25;;
22965;SDS011;11649;48.090;9.754;2022-08-01T03:24:37;5.45;;;3.95;;
22965;SDS011;11649;48.090;9.754;2022-08-01T03:27:06;5.88;;;3.67;;
22965;SDS011;11649;48.090;9.754;2022-08-01T03:29:36;5.82;;;4.10;;
22965;SDS011;11649;48.090;9.754;2022-08-01T03:32:05;5.40;;;4.10;;
22965;SDS011;11649;48.090;9.754;2022-08-01T03:34:33;6.60;;;3.88;;
22965;SDS011;11649;48.090;9.754;2022-08-01T03:37:12;6.20;;;4.30;;
22965;SDS011;11649;48.090;9.754;2022-08-01T03:39:50;5.95;;;3.83;;
22965;SDS011;11649;48.090;9.754;2022-08-01T03:42:24;6.03;;;3.90;;
22965;SDS011;11649;48.090;9.754;2022-08-01T03:44:57;3.90;;;3.50;;
22965;SDS011;11649;48.090;9.754;2022-08-01T03:47:32;5.05;;;3.90;;
22965;SDS011;11649;48.090;9.754;2022-08-01T03:50:10;4.10;;;3.70;;
22965;SDS011;11649;48.090;9.754;2022-08-01T03:52:39;3.70;;;3.25;;
22965;SDS011;11649;48.090;9.754;2022-08-01T03:55:09;6.15;;;3.95;;
22965;SDS011;11649;48.090;9.754;2022-08-01T03:57:38;4.38;;;3.97;;
22965;SDS011;11649;48.090;9.754;2022-08-01T04:00:06;5.80;;;3.40;;
22965;SDS011;11649;48.090;9.754;2022-08-01T04:02:35;4.50;;;3.80;;
22965;SDS011;11649;48.090;9.754;2022-08-01T04:05:03;5.28;;;3.80;;
22965;SDS011;11649;48.090;9.754;2022-08-01T04:07:32;4.32;;;3.60;;
22965;SDS011;11649;48.090;9.754;2022-08-01T04:10:02;4.18;;;3.60;;
22965;SDS011;11649;48.090;9.754;2022-08-01T04:12:30;4.60;;;3.65;;
22965;SDS011;11649;48.090;9.754;2022-08-01T04:14:58;4.35;;;3.90;;
22965;SDS011;11649;48.090;9.754;2022-08-01T04:17:25;4.57;;;3.65;;
22965;SDS011;11649;48.090;9.754;2022-08-01T04:19:52;5.60;;;4.10;;
22965;SDS011;11649;48.090;9.754;2022-08-01T04:22:19;4.32;;;3.78;;
22965;SDS011;11649;48.090;9.754;2022-08-01T04:24:47;5.93;;;4.28;;
22965;SDS011;11649;48.090;9.754;2022-08-01T04:27:23;4.13;;;3.53;;
22965;SDS011;11649;48.090;9.754;2022-08-01T04:30:16;5.18;;;4.00;;
22965;SDS011;11649;48.090;9.754;2022-08-01T04:32:46;9.77;;;3.70;;
22965;SDS011;11649;48.090;9.754;2022-08-01T04:35:14;5.40;;;3.83;;
22965;SDS011;11649;48.090;9.754;2022-08-01T04:38:04;6.25;;;3.80;;
22965;SDS011;11649;48.090;9.754;2022-08-01T04:40:32;6.07;;;3.65;;
22965;SDS011;11649;48.090;9.754;2022-08-01T04:43:02;6.03;;;3.85;;
22965;SDS011;11649;48.090;9.754;2022-08-01T04:45:30;5.07;;;4.18;;
22965;SDS011;11649;48.090;9.754;2022-08-01T04:47:58;7.07;;;3.90;;
22965;SDS011;11649;48.090;9.754;2022-08-01T04:50:26;4.55;;;3.65;;
22965;SDS011;11649;48.090;9.754;2022-08-01T04:52:53;7.63;;;4.10;;
22965;SDS011;11649;48.090;9.754;2022-08-01T04:55:20;4.35;;;3.95;;
22965;SDS011;11649;48.090;9.754;2022-08-01T04:57:47;8.40;;;4.63;;
22965;SDS011;11649;48.090;9.754;2022-08-01T05:00:14;7.53;;;4.10;;
22965;SDS011;11649;48.090;9.754;2022-08-01T05:02:44;6.40;;;4.03;;
22965;SDS011;11649;48.090;9.754;2022-08-01T05:05:12;6.68;;;4.28;;
22965;SDS011;11649;48.090;9.754;2022-08-01T05:07:39;5.13;;;4.28;;
22965;SDS011;11649;48.090;9.754;2022-08-01T05:10:10;4.10;;;3.70;;
22965;SDS011;11649;48.090;9.754;2022-08-01T05:12:37;6.60;;;4.45;;
22965;SDS011;11649;48.090;9.754;2022-08-01T05:15:04;6.55;;;4.60;;
22965;SDS011;11649;48.090;9.754;2022-08-01T05:17:39;5.38;;;4.30;;
22965;SDS011;11649;48.090;9.754;2022-08-01T05:20:10;5.78;;;4.50;;
22965;SDS011;11649;48.090;9.754;2022-08-01T05:22:38;5.20;;;4.70;;
22965;SDS011;11649;48.090;9.754;2022-08-01T05:25:05;5.57;;;4.53;;
22965;SDS011;11649;48.090;9.754;2022-08-01T05:27:33;8.32;;;4.85;;
22965;SDS011;11649;48.090;9.754;2022-08-01T05:30:05;4.20;;;3.80;;
22965;SDS011;11649;48.090;9.754;2022-08-01T05:32:33;7.13;;;5.35;;
22965;SDS011;11649;48.090;9.754;2022-08-01T05:35:00;4.60;;;4.20;;
22965;SDS011;11649;48.090;9.754;2022-08-01T05:37:27;5.00;;;4.50;;
22965;SDS011;11649;48.090;9.754;2022-08-01T05:39:54;5.13;;;4.15;;
22965;SDS011;11649;48.090;9.754;2022-08-01T05:42:20;4.63;;;4.18;;
22965;SDS011;11649;48.090;9.754;2022-08-01T05:44:47;6.10;;;4.03;;
22965;SDS011;11649;48.090;9.754;2022-08-01T05:47:14;7.38;;;4.38;;
22965;SDS011;11649;48.090;9.754;2022-08-01T05:49:41;7.18;;;4.40;;
22965;SDS011;11649;48.090;9.754;2022-08-01T05:52:08;4.80;;;4.20;;
22965;SDS011;11649;48.090;9.754;2022-08-01T05:54:35;7.03;;;3.78;;
22965;SDS011;11649;48.090;9.754;2022-08-01T05:57:02;6.63;;;4.15;;
22965;SDS011;11649;48.090;9.754;2022-08-01T05:59:29;4.20;;;3.80;;
22965;SDS011;11649;48.090;9.754;2022-08-01T06:01:56;4.07;;;3.40;;
22965;SDS011;11649;48.090;9.754;2022-08-01T06:04:24;4.28;;;3.47;;
22965;SDS011;11649;48.090;9.754;2022-08-01T06:06:50;4.22;;;3.00;;
22965;SDS011;11649;48.090;9.754;2022-08-01T06:09:17;5.03;;;3.13;;
22965;SDS011;11649;48.090;9.754;2022-08-01T06:11:44;4.05;;;3.10;;
22965;SDS011;11649;48.090;9.754;2022-08-01T06:14:11;3.50;;;2.63;;
22965;SDS011;11649;48.090;9.754;2022-08-01T06:16:37;3.47;;;2.90;;
22965;SDS011;11649;48.090;9.754;2022-08-01T06:19:04;4.88;;;3.00;;
22965;SDS011;11649;48.090;9.754;2022-08-01T06:21:31;5.75;;;2.90;;
22965;SDS011;11649;48.090;9.754;2022-08-01T06:23:58;2.90;;;2.60;;
22965;SDS011;11649;48.090;9.754;2022-08-01T06:26:24;3.65;;;2.80;;
22965;SDS011;11649;48.090;9.754;2022-08-01T06:28:51;3.17;;;2.72;;
22965;SDS011;11649;48.090;9.754;2022-08-01T06:31:18;3.53;;;2.78;;
22965;SDS011;11649;48.090;9.754;2022-08-01T06:33:45;3.00;;;2.67;;
22965;SDS011;11649;48.090;9.754;2022-08-01T06:36:12;4.57;;;3.00;;
22965;SDS011;11649;48.090;9.754;2022-08-01T06:38:38;3.42;;;2.60;;
22965;SDS011;11649;48.090;9.754;2022-08-01T06:41:05;5.63;;;2.90;;
22965;SDS011;11649;48.090;9.754;2022-08-01T06:43:32;4.55;;;2.63;;
22965;SDS011;11649;48.090;9.754;2022-08-01T06:45:59;3.78;;;3.03;;
22965;SDS011;11649;48.090;9.754;2022-08-01T06:48:26;3.30;;;2.70;;
22965;SDS011;11649;48.090;9.754;2022-08-01T06:50:53;3.03;;;2.40;;
22965;SDS011;11649;48.090;9.754;2022-08-01T06:53:37;3.20;;;2.35;;
22965;SDS011;11649;48.090;9.754;2022-08-01T06:56:04;2.60;;;2.40;;
22965;SDS011;11649;48.090;9.754;2022-08-01T06:58:32;3.55;;;2.97;;
22965;SDS011;11649;48.090;9.754;2022-08-01T07:01:00;2.80;;;2.60;;
22965;SDS011;11649;48.090;9.754;2022-08-01T07:03:30;4.53;;;2.85;;
22965;SDS011;11649;48.090;9.754;2022-08-01T07:06:17;3.08;;;2.78;;
22965;SDS011;11649;48.090;9.754;2022-08-01T07:08:44;3.05;;;2.60;;
22965;SDS011;11649;48.090;9.754;2022-08-01T07:11:10;2.90;;;2.60;;
22965;SDS011;11649;48.090;9.754;2022-08-01T07:13:37;3.30;;;3.00;;
22965;SDS011;11649;48.090;9.754;2022-08-01T07:16:11;3.05;;;2.47;;
22965;SDS011;11649;48.090;9.754;2022-08-01T07:18:38;4.43;;;2.85;;
22965;SDS011;11649;48.090;9.754;2022-08-01T07:21:05;4.43;;;3.30;;
22965;SDS011;11649;48.090;9.754;2022-08-01T07:23:52;4.57;;;3.08;;
22965;SDS011;11649;48.090;9.754;2022-08-01T07:26:21;3.83;;;2.72;;
22965;SDS011;11649;48.090;9.754;2022-08-01T07:28:47;7.10;;;3.00;;
22965;SDS011;11649;48.090;9.754;2022-08-01T07:31:14;3.28;;;2.58;;
22965;SDS011;11649;48.090;9.754;2022-08-01T07:33:41;3.85;;;2.92;;
22965;SDS011;11649;48.090;9.754;2022-08-01T07:36:14;4.13;;;2.70;;
22965;SDS011;11649;48.090;9.754;2022-08-01T07:38:44;3.78;;;3.17;;
22965;SDS011;11649;48.090;9.754;2022-08-01T07:41:12;2.90;;;2.60;;
22965;SDS011;11649;48.090;9.754;2022-08-01T07:43:39;7.00;;;3.25;;
22965;SDS011;11649;48.090;9.754;2022-08-01T07:46:15;6.13;;;2.72;;
22965;SDS011;11649;48.090;9.754;2022-08-01T07:48:42;5.40;;;2.53;;
22965;SDS011;11649;48.090;9.754;2022-08-01T07:51:09;2.67;;;2.30;;
22965;SDS011;11649;48.090;9.754;2022-08-01T07:53:36;2.80;;;2.35;;
22965;SDS011;11649;48.090;9.754;2022-08-01T07:56:03;3.20;;;2.50;;
22965;SDS011;11649;48.090;9.754;2022-08-01T07:58:33;3.42;;;2.20;;
22965;SDS011;11649;48.090;9.754;2022-08-01T08:01:00;4.85;;;2.20;;
22965;SDS011;11649;48.090;9.754;2022-08-01T08:03:27;2.72;;;2.28;;
22965;SDS011;11649;48.090;9.754;2022-08-01T08:05:54;3.15;;;2.25;;
22965;SDS011;11649;48.090;9.754;2022-08-01T08:08:25;2.60;;;2.40;;
22965;SDS011;11649;48.090;9.754;2022-08-01T08:10:52;3.67;;;2.20;;
22965;SDS011;11649;48.090;9.754;2022-08-01T08:13:19;2.78;;;2.15;;
22965;SDS011;11649;48.090;9.754;2022-08-01T08:15:46;3.13;;;2.30;;
22965;SDS011;11649;48.090;9.754;2022-08-01T08:18:14;2.70;;;2.30;;
22965;SDS011;11649;48.090;9.754;2022-08-01T08:20:41;2.92;;;2.33;;
22965;SDS011;11649;48.090;9.754;2022-08-01T08:23:08;3.22;;;2.33;;
22965;SDS011;11649;48.090;9.754;2022-08-01T08:26:09;2.42;;;2.10;;
22965;SDS011;11649;48.090;9.754;2022-08-01T08:28:37;2.83;;;2.30;;
22965;SDS011;11649;48.090;9.754;2022-08-01T08:31:06;2.50;;;2.30;;
22965;SDS011;11649;48.090;9.754;2022-08-01T08:33:53;2.40;;;2.20;;
22965;SDS011;11649;48.090;9.754;2022-08-01T08:36:20;3.83;;;2.30;;
22965;SDS011;11649;48.090;9.754;2022-08-01T08:38:56;3.28;;;2.38;;
22965;SDS011;11649;48.090;9.754;2022-08-01T08:41:24;2.83;;;2.25;;
22965;SDS011;11649;48.090;9.754;2022-08-01T08:43:50;2.78;;;2.40;;
22965;SDS011;11649;48.090;9.754;2022-08-01T08:46:17;4.07;;;2.45;;
22965;SDS011;11649;48.090;9.754;2022-08-01T08:48:54;3.17;;;2.45;;
22965;SDS011;11649;48.090;9.754;2022-08-01T08:51:23;3.25;;;2.20;;
22965;SDS011;11649;48.090;9.754;2022-08-01T08:53:56;3.08;;;2.10;;
22965;SDS011;11649;48.090;9.754;2022-08-01T08:56:24;2.60;;;2.40;;
22965;SDS011;11649;48.090;9.754;2022-08-01T08:58:53;3.03;;;2.20;;
22965;SDS011;11649;48.090;9.754;2022-08-01T09:01:20;2.33;;;2.10;;
22965;SDS011;11649;48.090;9.754;2022-08-01T09:03:48;2.60;;;2.10;;
22965;SDS011;11649;48.090;9.754;2022-08-01T09:06:15;3.95;;;2.63;;
22965;SDS011;11649;48.090;9.754;2022-08-01T09:08:41;3.63;;;2.40;;
22965;SDS011;11649;48.090;9.754;2022-08-01T09:11:09;3.78;;;2.35;;
22965;SDS011;11649;48.090;9.754;2022-08-01T09:13:39;2.40;;;2.20;;
22965;SDS011;11649;48.090;9.754;2022-08-01T09:16:15;2.20;;;2.00;;
22965;SDS011;11649;48.090;9.754;2022-08-01T09:18:43;4.18;;;2.30;;
22965;SDS011;11649;48.090;9.754;2022-08-01T09:21:20;2.85;;;2.30;;
22965;SDS011;11649;48.090;9.754;2022-08-01T09:23:50;3.83;;;2.38;;
22965;SDS011;11649;48.090;9.754;2022-08-01T09:26:42;2.53;;;2.30;;
22965;SDS011;11649;48.090;9.754;2022-08-01T09:29:09;3.65;;;2.30;;
22965;SDS011;11649;48.090;9.754;2022-08-01T09:32:05;2.28;;;2.05;;
22965;SDS011;11649;48.090;9.754;2022-08-01T09:34:33;3.45;;;2.20;;
22965;SDS011;11649;48.090;9.754;2022-08-01T09:37:01;2.33;;;2.10;;
22965;SDS011;11649;48.090;9.754;2022-08-01T09:39:34;2.40;;;2.20;;
22965;SDS011;11649;48.090;9.754;2022-08-01T09:42:20;3.05;;;2.50;;
22965;SDS011;11649;48.090;9.754;2022-08-01T09:44:54;2.28;;;2.05;;
22965;SDS011;11649;48.090;9.754;2022-08-01T09:47:21;2.30;;;2.08;;
22965;SDS011;11649;48.090;9.754;2022-08-01T09:50:04;2.70;;;2.03;;
22965;SDS011;11649;48.090;9.754;2022-08-01T09:52:36;2.97;;;2.28;;
22965;SDS011;11649;48.090;9.754;2022-08-01T09:55:06;2.42;;;2.22;;
22965;SDS011;11649;48.090;9.754;2022-08-01T09:57:33;2.60;;;2.40;;
22965;SDS011;11649;48.090;9.754;2022-08-01T10:00:00;3.10;;;2.47;;
22965;SDS011;11649;48.090;9.754;2022-08-01T10:02:33;2.65;;;2.40;;
22965;SDS011;11649;48.090;9.754;2022-08-01T10:05:03;2.03;;;1.83;;
22965;SDS011;11649;48.090;9.754;2022-08-01T10:07:34;2.35;;;1.90;;
22965;SDS011;11649;48.090;9.754;2022-08-01T10:10:13;2.17;;;1.92;;
22965;SDS011;11649;48.090;9.754;2022-08-01T10:12:42;3.15;;;1.90;;
22965;SDS011;11649;48.090;9.754;2022-08-01T10:15:12;2.10;;;1.90;;
22965;SDS011;11649;48.090;9.754;2022-08-01T10:18:03;3.17;;;1.90;;
22965;SDS011;11649;48.090;9.754;2022-08-01T10:20:46;2.22;;;2.00;;
22965;SDS011;11649;48.090;9.754;2022-08-01T10:23:13;2.60;;;1.80;;
22965;SDS011;11649;48.090;9.754;2022-08-01T10:25:41;2.33;;;1.92;;
22965;SDS011;11649;48.090;9.754;2022-08-01T10:28:16;2.72;;;1.83;;
22965;SDS011;11649;48.090;9.754;2022-08-01T10:30:49;2.58;;;1.83;;
22965;SDS011;11649;48.090;9.754;2022-08-01T10:33:18;2.17;;;1.80;;
22965;SDS011;11649;48.090;9.754;2022-08-01T10:36:08;2.28;;;1.83;;
22965;SDS011;11649;48.090;9.754;2022-08-01T10:38:35;3.33;;;2.08;;
22965;SDS011;11649;48.090;9.754;2022-08-01T10:41:03;3.05;;;2.10;;
22965;SDS011;11649;48.090;9.754;2022-08-01T10:43:34;4.10;;;2.00;;
22965;SDS011;11649;48.090;9.754;2022-08-01T10:46:02;3.38;;;2.20;;
22965;SDS011;11649;48.090;9.754;2022-08-01T10:51:05;2.72;;;1.88;;
22965;SDS011;11649;48.090;9.754;2022-08-01T10:53:51;2.25;;;2.03;;
22965;SDS011;11649;48.090;9.754;2022-08-01T10:56:21;3.03;;;2.00;;
22965;SDS011;11649;48.090;9.754;2022-08-01T10:58:55;7.13;;;2.08;;
22965;SDS011;11649;48.090;9.754;2022-08-01T11:01:36;5.25;;;2.20;;
22965;SDS011;11649;48.090;9.754;2022-08-01T11:04:11;3.03;;;2.23;;
22965;SDS011;11649;48.090;9.754;2022-08-01T11:06:45;5.57;;;2.28;;
22965;SDS011;11649;48.090;9.754;2022-08-01T11:09:37;2.58;;;1.95;;
22965;SDS011;11649;48.090;9.754;2022-08-01T11:12:16;2.90;;;2.28;;
22965;SDS011;11649;48.090;9.754;2022-08-01T11:20:43;1.98;;;1.67;;
22965;SDS011;11649;48.090;9.754;2022-08-01T11:28:26;1.80;;;1.70;;
22965;SDS011;11649;48.090;9.754;2022-08-01T11:41:44;3.45;;;2.00;;
22965;SDS011;11649;48.090;9.754;2022-08-01T11:44:13;3.30;;;2.20;;
22965;SDS011;11649;48.090;9.754;2022-08-01T11:52:09;3.53;;;1.88;;
22965;SDS011;11649;48.090;9.754;2022-08-01T11:54:39;2.22;;;1.70;;
22965;SDS011;11649;48.090;9.754;2022-08-01T11:57:09;2.33;;;1.90;;
22965;SDS011;11649;48.090;9.754;2022-08-01T11:59:46;2.63;;;1.80;;
22965;SDS011;11649;48.090;9.754;2022-08-01T12:05:00;3.22;;;2.08;;
22965;SDS011;11649;48.090;9.754;2022-08-01T12:07:30;2.00;;;1.75;;
22965;SDS011;11649;48.090;9.754;2022-08-01T12:10:00;1.98;;;1.70;;
22965;SDS011;11649;48.090;9.754;2022-08-01T12:12:35;1.95;;;1.75;;
22965;SDS011;11649;48.090;9.754;2022-08-01T12:15:05;1.77;;;1.60;;
22965;SDS011;11649;48.090;9.754;2022-08-01T12:17:36;3.83;;;1.92;;
22965;SDS011;11649;48.090;9.754;2022-08-01T12:20:22;4.60;;;1.80;;
22965;SDS011;11649;48.090;9.754;2022-08-01T12:22:53;2.08;;;1.60;;
22965;SDS011;11649;48.090;9.754;2022-08-01T12:25:21;2.85;;;1.88;;
22965;SDS011;11649;48.090;9.754;2022-08-01T12:27:48;2.20;;;1.52;;
22965;SDS011;11649;48.090;9.754;2022-08-01T12:30:21;3.88;;;1.80;;
22965;SDS011;11649;48.090;9.754;2022-08-01T12:32:50;2.22;;;1.73;;
22965;SDS011;11649;48.090;9.754;2022-08-01T12:35:19;1.98;;;1.77;;
22965;SDS011;11649;48.090;9.754;2022-08-01T12:37:49;2.45;;;1.60;;
22965;SDS011;11649;48.090;9.754;2022-08-01T12:42:51;2.40;;;1.80;;
22965;SDS011;11649;48.090;9.754;2022-08-01T12:45:42;1.92;;;1.73;;
22965;SDS011;11649;48.090;9.754;2022-08-01T12:48:22;2.20;;;1.63;;
22965;SDS011;11649;48.090;9.754;2022-08-01T12:50:51;2.28;;;1.50;;
22965;SDS011;11649;48.090;9.754;2022-08-01T12:53:19;2.00;;;1.52;;
22965;SDS011;11649;48.090;9.754;2022-08-01T12:55:48;1.77;;;1.45;;
22965;SDS011;11649;48.090;9.754;2022-08-01T12:58:29;2.33;;;1.48;;
22965;SDS011;11649;48.090;9.754;2022-08-01T13:01:04;2.22;;;1.70;;
22965;SDS011;11649;48.090;9.754;2022-08-01T13:03:33;1.90;;;1.65;;
22965;SDS011;11649;48.090;9.754;2022-08-01T13:06:00;1.70;;;1.60;;
22965;SDS011;11649;48.090;9.754;2022-08-01T13:08:30;2.85;;;1.80;;
22965;SDS011;11649;48.090;9.754;2022-08-01T13:11:03;2.28;;;1.40;;
22965;SDS011;11649;48.090;9.754;2022-08-01T13:13:41;2.33;;;1.80;;
22965;SDS011;11649;48.090;9.754;2022-08-01T13:16:16;2.85;;;1.77;;
22965;SDS011;11649;48.090;9.754;2022-08-01T13:19:03;3.75;;;1.92;;
22965;SDS011;11649;48.090;9.754;2022-08-01T13:21:31;2.13;;;1.60;;
22965;SDS011;11649;48.090;9.754;2022-08-01T13:24:22;2.53;;;1.70;;
22965;SDS011;11649;48.090;9.754;2022-08-01T13:26:56;6.18;;;1.70;;
22965;SDS011;11649;48.090;9.754;2022-08-01T13:29:33;4.10;;;1.77;;
22965;SDS011;11649;48.090;9.754;2022-08-01T13:32:17;2.40;;;1.92;;
22965;SDS011;11649;48.090;9.754;2022-08-01T13:35:00;3.15;;;2.40;;
22965;SDS011;11649;48.090;9.754;2022-08-01T13:37:31;5.82;;;2.60;;
22965;SDS011;11649;48.090;9.754;2022-08-01T13:39:58;5.45;;;2.00;;
22965;SDS011;11649;48.090;9.754;2022-08-01T13:42:25;2.53;;;2.20;;
22965;SDS011;11649;48.090;9.754;2022-08-01T13:44:52;2.33;;;2.13;;
22965;SDS011;11649;48.090;9.754;2022-08-01T13:47:18;3.03;;;2.00;;
22965;SDS011;11649;48.090;9.754;2022-08-01T13:49:57;6.13;;;2.40;;
22965;SDS011;11649;48.090;9.754;2022-08-01T13:52:28;3.92;;;2.70;;
22965;SDS011;11649;48.090;9.754;2022-08-01T13:54:55;5.38;;;2.35;;
22965;SDS011;11649;48.090;9.754;2022-08-01T13:57:21;3.72;;;2.55;;
22965;SDS011;11649;48.090;9.754;2022-08-01T13:59:48;3.17;;;2.15;;
22965;SDS011;11649;48.090;9.754;2022-08-01T14:02:15;3.45;;;2.50;;
22965;SDS011;11649;48.090;9.754;2022-08-01T14:04:42;4.80;;;2.97;;
22965;SDS011;11649;48.090;9.754;2022-08-01T14:07:08;5.63;;;2.97;;
22965;SDS011;11649;48.090;9.754;2022-08-01T14:09:40;6.57;;;2.75;;
22965;SDS011;11649;48.090;9.754;2022-08-01T14:12:28;10.57;;;2.53;;
22965;SDS011;11649;48.090;9.754;2022-08-01T14:14:55;3.35;;;2.70;;
22965;SDS011;11649;48.090;9.754;2022-08-01T14:17:22;6.35;;;2.58;;
22965;SDS011;11649;48.090;9.754;2022-08-01T14:19:49;3.85;;;3.20;;
22965;SDS011;11649;48.090;9.754;2022-08-01T14:22:16;3.85;;;2.60;;
22965;SDS011;11649;48.090;9.754;2022-08-01T14:24:42;5.05;;;2.63;;
22965;SDS011;11649;48.090;9.754;2022-08-01T14:27:09;2.53;;;2.30;;
22965;SDS011;11649;48.090;9.754;2022-08-01T14:29:36;3.63;;;2.50;;
22965;SDS011;11649;48.090;9.754;2022-08-01T14:32:23;4.93;;;3.20;;
22965;SDS011;11649;48.090;9.754;2022-08-01T14:34:54;4.82;;;2.90;;
22965;SDS011;11649;48.090;9.754;2022-08-01T14:37:21;4.43;;;3.08;;
22965;SDS011;11649;48.090;9.754;2022-08-01T14:39:55;5.07;;;3.45;;
22965;SDS011;11649;48.090;9.754;2022-08-01T14:42:25;3.10;;;2.80;;
22965;SDS011;11649;48.090;9.754;2022-08-01T14:44:52;7.72;;;3.40;;
22965;SDS011;11649;48.090;9.754;2022-08-01T14:47:19;3.92;;;3.15;;
22965;SDS011;11649;48.090;9.754;2022-08-01T14:49:47;5.57;;;3.50;;
22965;SDS011;11649;48.090;9.754;2022-08-01T14:52:15;3.90;;;3.30;;
22965;SDS011;11649;48.090;9.754;2022-08-01T14:54:42;5.80;;;3.85;;
22965;SDS011;11649;48.090;9.754;2022-08-01T14:57:09;5.75;;;3.63;;
22965;SDS011;11649;48.090;9.754;2022-08-01T14:59:36;5.72;;;3.30;;
22965;SDS011;11649;48.090;9.754;2022-08-01T15:02:03;4.85;;;3.60;;
22965;SDS011;11649;48.090;9.754;2022-08-01T15:04:30;4.38;;;3.58;;
22965;SDS011;11649;48.090;9.754;2022-08-01T15:06:57;3.45;;;2.90;;
22965;SDS011;11649;48.090;9.754;2022-08-01T15:09:24;3.67;;;3.33;;
22965;SDS011;11649;48.090;9.754;2022-08-01T15:11:51;5.65;;;3.50;;
22965;SDS011;11649;48.090;9.754;2022-08-01T15:14:17;4.57;;;3.53;;
22965;SDS011;11649;48.090;9.754;2022-08-01T15:17:03;3.92;;;3.30;;
22965;SDS011;11649;48.090;9.754;2022-08-01T15:19:30;5.22;;;2.90;;
22965;SDS011;11649;48.090;9.754;2022-08-01T15:21:56;3.63;;;2.60;;
22965;SDS011;11649;48.090;9.754;2022-08-01T15:24:26;4.93;;;3.15;;
22965;SDS011;11649;48.090;9.754;2022-08-01T15:26:53;3.03;;;2.40;;
22965;SDS011;11649;48.090;9.754;2022-08-01T15:29:20;4.70;;;2.67;;
22965;SDS011;11649;48.090;9.754;2022-08-01T15:31:47;4.63;;;2.67;;
22965;SDS011;11649;48.090;9.754;2022-08-01T15:34:13;5.80;;;2.40;;
22965;SDS011;11649;48.090;9.754;2022-08-01T15:36:40;3.03;;;2.20;;
22965;SDS011;11649;48.090;9.754;2022-08-01T15:39:09;5.68;;;2.53;;
22965;SDS011;11649;48.090;9.754;2022-08-01T15:41:36;4.05;;;2.30;;
22965;SDS011;11649;48.090;9.754;2022-08-01T15:44:03;2.53;;;2.00;;
22965;SDS011;11649;48.090;9.754;2022-08-01T15:46:30;4.95;;;2.30;;
22965;SDS011;11649;48.090;9.754;2022-08-01T15:48:57;2.72;;;2.20;;
22965;SDS011;11649;48.090;9.754;2022-08-01T15:51:28;4.85;;;2.40;;
22965;SDS011;11649;48.090;9.754;2022-08-01T15:53:55;3.15;;;2.50;;
22965;SDS011;11649;48.090;9.754;2022-08-01T15:56:22;3.38;;;2.40;;